Wetterdaten: Woche 01.04.02 - 07.04.02 (KW14)
Datum Zeit Temperatur Luftfeuchte Luftdruck Regenmenge Wind Richtung Taupunkt Windchill
01.04.2002 00:00 2.8 C 84 % 1018.0 hPa 0.0 l/m 1.6 km/h (1 Bft) O-SO 0.4 C 2.5 C
01.04.2002 01:00 1.8 C 87 % 1017.1 hPa 0.0 l/m 0.0 km/h (0 Bft) N -0.1 C 1.8 C
01.04.2002 02:00 1.4 C 90 % 1017.0 hPa 0.0 l/m 0.7 km/h (0 Bft) O -0.1 C 1.4 C
01.04.2002 03:00 0.7 C 91 % 1017.0 hPa 0.0 l/m 0.9 km/h (0 Bft) O-SO -0.5 C 0.7 C
01.04.2002 04:00 0.0 C 93 % 1017.0 hPa 0.0 l/m 0.9 km/h (0 Bft) O -1.0 C 0.0 C
01.04.2002 05:00 -0.5 C 95 % 1017.0 hPa 0.0 l/m 0.0 km/h (0 Bft) N -1.3 C -0.5 C
01.04.2002 06:00 -1.1 C 96 % 1017.0 hPa 0.0 l/m 0.2 km/h (0 Bft) O-SO -1.7 C -1.1 C
01.04.2002 07:00 -0.9 C 96 % 1017.0 hPa 0.0 l/m 1.2 km/h (1 Bft) O-SO -1.4 C -1.2 C
01.04.2002 08:00 0.7 C 96 % 1017.0 hPa 0.0 l/m 0.0 km/h (0 Bft) N 0.1 C 0.7 C
01.04.2002 09:00 2.9 C 84 % 1017.0 hPa 0.0 l/m 0.0 km/h (0 Bft) N 0.4 C 2.9 C
01.04.2002 10:00 5.5 C 74 % 1017.3 hPa 0.0 l/m 2.7 km/h (1 Bft) O-SO 1.3 C 5.1 C
01.04.2002 11:00 9.5 C 60 % 1017.2 hPa 0.0 l/m 1.0 km/h (0 Bft) NW 2.1 C 9.5 C
01.04.2002 12:00 13.2 C 45 % 1017.0 hPa 0.0 l/m 2.4 km/h (1 Bft) NW 1.4 C 13.2 C
01.04.2002 13:00 16.4 C 36 % 1016.2 hPa 0.0 l/m 9.9 km/h (2 Bft) O-SO 1.1 C 16.4 C
01.04.2002 14:00 17.4 C 30 % 1015.9 hPa 0.0 l/m 10.0 km/h (2 Bft) O-SO -0.2 C 17.4 C
01.04.2002 15:00 17.6 C 28 % 1014.9 hPa 0.0 l/m 4.5 km/h (1 Bft) SO -1.3 C 17.6 C
01.04.2002 16:00 17.7 C 28 % 1014.9 hPa 0.0 l/m 5.0 km/h (1 Bft) O-SO -0.8 C 17.7 C
01.04.2002 17:00 17.3 C 27 % 1014.8 hPa 0.0 l/m 6.4 km/h (2 Bft) O-SO -1.7 C 17.3 C
01.04.2002 18:00 16.3 C 29 % 1014.5 hPa 0.0 l/m 7.1 km/h (2 Bft) O-SO -1.7 C 16.3 C
01.04.2002 19:00 14.2 C 36 % 1014.9 hPa 0.0 l/m 4.6 km/h (1 Bft) O-SO -0.8 C 14.2 C
01.04.2002 20:00 11.3 C 45 % 1015.2 hPa 0.0 l/m 2.6 km/h (1 Bft) O-SO -0.2 C 11.3 C
01.04.2002 21:00 8.5 C 60 % 1015.9 hPa 0.0 l/m 3.0 km/h (1 Bft) O-SO 1.1 C 8.2 C
01.04.2002 22:00 6.7 C 66 % 1015.9 hPa 0.0 l/m 0.7 km/h (0 Bft) O-SO 0.9 C 6.7 C
01.04.2002 23:00 5.5 C 73 % 1016.0 hPa 0.0 l/m 2.0 km/h (1 Bft) O-SO 0.9 C 5.4 C
02.04.2002 00:00 4.3 C 77 % 1017.0 hPa 0.0 l/m 3.5 km/h (1 Bft) O-SO 0.6 C 3.7 C
02.04.2002 01:00 3.3 C 81 % 1017.0 hPa 0.0 l/m 0.7 km/h (0 Bft) O 0.4 C 3.3 C
02.04.2002 02:00 2.2 C 87 % 1017.0 hPa 0.0 l/m 1.1 km/h (0 Bft) O 0.2 C 2.2 C
02.04.2002 03:00 1.5 C 89 % 1017.0 hPa 0.0 l/m 0.1 km/h (0 Bft) O -0.2 C 1.5 C
02.04.2002 04:00 0.9 C 91 % 1017.0 hPa 0.0 l/m 1.2 km/h (1 Bft) O-SO -0.4 C 0.6 C
02.04.2002 05:00 0.1 C 94 % 1017.0 hPa 0.0 l/m 0.9 km/h (0 Bft) O -0.8 C -0.0 C
02.04.2002 06:00 -0.1 C 95 % 1017.0 hPa 0.0 l/m 0.0 km/h (0 Bft) N -0.9 C -0.1 C
02.04.2002 07:00 -0.1 C 95 % 1017.0 hPa 0.0 l/m 0.6 km/h (0 Bft) O-SO -0.8 C -0.1 C
02.04.2002 08:00 1.6 C 92 % 1017.0 hPa 0.0 l/m 0.0 km/h (0 Bft) N 0.5 C 1.6 C
02.04.2002 09:00 4.3 C 82 % 1016.4 hPa 0.0 l/m 0.8 km/h (0 Bft) N-NW 1.5 C 4.3 C
02.04.2002 10:00 8.0 C 65 % 1015.9 hPa 0.0 l/m 2.5 km/h (1 Bft) NW 1.7 C 7.7 C
02.04.2002 11:00 11.6 C 53 % 1015.6 hPa 0.0 l/m 1.5 km/h (1 Bft) NW 2.4 C 11.6 C
02.04.2002 12:00 15.2 C 48 % 1014.6 hPa 0.0 l/m 5.0 km/h (1 Bft) O-NO 4.1 C 15.2 C
02.04.2002 13:00 17.3 C 42 % 1013.9 hPa 0.0 l/m 18.5 km/h (3 Bft) O-SO 4.3 C 17.3 C
02.04.2002 14:00 18.5 C 39 % 1013.3 hPa 0.0 l/m 16.2 km/h (3 Bft) O-SO 4.2 C 18.5 C
02.04.2002 15:00 19.2 C 35 % 1012.4 hPa 0.0 l/m 16.0 km/h (3 Bft) O-SO 3.2 C 19.2 C
02.04.2002 16:00 19.4 C 33 % 1011.8 hPa 0.0 l/m 14.6 km/h (3 Bft) SO 2.7 C 19.4 C
02.04.2002 17:00 19.0 C 31 % 1010.8 hPa 0.0 l/m 11.7 km/h (2 Bft) O-SO 1.4 C 19.0 C
02.04.2002 18:00 18.2 C 34 % 1010.8 hPa 0.0 l/m 9.6 km/h (2 Bft) O-SO 2.0 C 18.2 C
02.04.2002 19:00 16.3 C 39 % 1010.8 hPa 0.0 l/m 1.7 km/h (1 Bft) O 2.1 C 16.3 C
02.04.2002 20:00 13.0 C 47 % 1010.8 hPa 0.0 l/m 1.0 km/h (0 Bft) O-SO 1.8 C 13.0 C
02.04.2002 21:00 12.8 C 49 % 1010.8 hPa 0.0 l/m 0.8 km/h (0 Bft) N-NO 2.2 C 12.8 C
02.04.2002 22:00 12.6 C 54 % 1010.8 hPa 0.0 l/m 1.4 km/h (1 Bft) N-NO 3.5 C 12.6 C
02.04.2002 23:00 10.9 C 63 % 1010.5 hPa 0.0 l/m 1.0 km/h (0 Bft) NO 4.2 C 10.9 C
03.04.2002 00:00 11.2 C 64 % 1009.7 hPa 0.0 l/m 4.0 km/h (1 Bft) O 4.7 C 11.2 C
03.04.2002 01:00 9.5 C 70 % 1008.9 hPa 0.0 l/m 0.2 km/h (0 Bft) O-SO 4.3 C 9.5 C
03.04.2002 02:00 8.3 C 74 % 1008.7 hPa 0.0 l/m 2.0 km/h (1 Bft) O-SO 3.9 C 8.1 C
03.04.2002 03:00 6.3 C 83 % 1008.4 hPa 0.0 l/m 0.0 km/h (0 Bft) N 3.7 C 6.3 C
03.04.2002 04:00 5.1 C 89 % 1007.7 hPa 0.0 l/m 0.1 km/h (0 Bft) O 3.3 C 5.1 C
03.04.2002 05:00 4.3 C 91 % 1007.4 hPa 0.0 l/m 0.1 km/h (0 Bft) O-SO 2.9 C 4.3 C
03.04.2002 06:00 3.6 C 94 % 1006.6 hPa 0.0 l/m 0.0 km/h (0 Bft) N 2.7 C 3.6 C
03.04.2002 07:00 3.6 C 96 % 1006.6 hPa 0.0 l/m 0.0 km/h (0 Bft) N 3.0 C 3.6 C
03.04.2002 08:00 5.2 C 90 % 1006.6 hPa 0.0 l/m 0.0 km/h (0 Bft) N 3.6 C 5.2 C
03.04.2002 09:00 8.0 C 75 % 1006.6 hPa 0.0 l/m 0.1 km/h (0 Bft) W-NW 3.8 C 8.0 C
03.04.2002 10:00 11.4 C 58 % 1006.6 hPa 0.0 l/m 2.6 km/h (1 Bft) O-SO 3.4 C 11.4 C
03.04.2002 11:00 14.2 C 50 % 1005.7 hPa 0.0 l/m 7.5 km/h (2 Bft) O-SO 3.8 C 14.2 C
03.04.2002 12:00 16.4 C 43 % 1005.2 hPa 0.0 l/m 7.5 km/h (2 Bft) O-SO 3.9 C 16.4 C
03.04.2002 13:00 18.4 C 35 % 1004.5 hPa 0.0 l/m 11.2 km/h (2 Bft) O-SO 2.6 C 18.4 C
03.04.2002 14:00 19.4 C 32 % 1003.6 hPa 0.0 l/m 8.9 km/h (2 Bft) O-SO 2.2 C 19.4 C
03.04.2002 15:00 19.8 C 28 % 1003.1 hPa 0.0 l/m 11.2 km/h (2 Bft) O-SO 0.6 C 19.8 C
03.04.2002 16:00 19.8 C 27 % 1002.5 hPa 0.0 l/m 9.0 km/h (2 Bft) O-SO 0.4 C 19.8 C
03.04.2002 17:00 19.5 C 30 % 1002.5 hPa 0.0 l/m 8.3 km/h (2 Bft) O-SO 1.3 C 19.5 C
03.04.2002 18:00 18.4 C 32 % 1002.4 hPa 0.0 l/m 8.9 km/h (2 Bft) O-SO 1.3 C 18.4 C
03.04.2002 19:00 16.4 C 34 % 1002.5 hPa 0.0 l/m 0.9 km/h (0 Bft) O-SO 0.3 C 16.4 C
03.04.2002 20:00 13.5 C 41 % 1002.5 hPa 0.0 l/m 1.6 km/h (1 Bft) O-SO 0.4 C 13.5 C
03.04.2002 21:00 12.1 C 53 % 1002.5 hPa 0.0 l/m 1.9 km/h (1 Bft) SO 2.8 C 12.1 C
03.04.2002 22:00 10.0 C 65 % 1002.5 hPa 0.0 l/m 4.3 km/h (1 Bft) O-SO 3.8 C 10.0 C
03.04.2002 23:00 8.5 C 71 % 1003.5 hPa 0.0 l/m 1.7 km/h (1 Bft) O-SO 3.7 C 8.4 C
04.04.2002 00:00 8.5 C 73 % 1003.5 hPa 0.0 l/m 3.0 km/h (1 Bft) O-SO 3.9 C 8.1 C
04.04.2002 01:00 7.7 C 77 % 1003.6 hPa 0.0 l/m 0.1 km/h (0 Bft) W-NW 4.0 C 7.7 C
04.04.2002 02:00 6.9 C 82 % 1004.5 hPa 0.0 l/m 0.2 km/h (0 Bft) O-SO 4.1 C 6.9 C
04.04.2002 03:00 6.0 C 89 % 1004.5 hPa 0.0 l/m 0.0 km/h (0 Bft) N 4.2 C 6.0 C
04.04.2002 04:00 5.2 C 93 % 1004.5 hPa 0.0 l/m 0.0 km/h (0 Bft) N 4.0 C 5.2 C
04.04.2002 05:00 4.3 C 96 % 1004.5 hPa 0.0 l/m 0.0 km/h (0 Bft) N 3.7 C 4.3 C
04.04.2002 06:00 3.6 C 99 % 1004.5 hPa 0.0 l/m 0.0 km/h (0 Bft) N 3.5 C 3.6 C
04.04.2002 07:00 3.5 C 99 % 1004.5 hPa 0.0 l/m 0.0 km/h (0 Bft) N 3.4 C 3.5 C
04.04.2002 08:00 4.7 C 92 % 1004.5 hPa 0.0 l/m 0.0 km/h (0 Bft) N 3.5 C 4.7 C
04.04.2002 09:00 7.9 C 75 % 1004.5 hPa 0.0 l/m 1.0 km/h (0 Bft) O-NO 3.7 C 7.8 C
04.04.2002 10:00 11.1 C 60 % 1003.8 hPa 0.0 l/m 6.5 km/h (2 Bft) O-SO 3.6 C 11.1 C
04.04.2002 11:00 13.8 C 53 % 1003.5 hPa 0.0 l/m 7.4 km/h (2 Bft) O-SO 4.2 C 13.8 C
04.04.2002 12:00 16.0 C 47 % 1003.4 hPa 0.0 l/m 5.6 km/h (1 Bft) O-SO 4.7 C 16.0 C
04.04.2002 13:00 18.3 C 41 % 1002.5 hPa 0.0 l/m 10.8 km/h (2 Bft) SO 4.6 C 18.3 C
04.04.2002 14:00 19.3 C 36 % 1001.7 hPa 0.0 l/m 13.2 km/h (3 Bft) SO 3.6 C 19.3 C
04.04.2002 15:00 19.3 C 32 % 1001.4 hPa 0.0 l/m 12.1 km/h (2 Bft) O-SO 2.2 C 19.3 C
04.04.2002 16:00 19.2 C 31 % 1001.4 hPa 0.0 l/m 9.9 km/h (2 Bft) O 1.7 C 19.2 C
04.04.2002 17:00 18.7 C 33 % 1001.1 hPa 0.0 l/m 9.7 km/h (2 Bft) O-SO 1.9 C 18.7 C
04.04.2002 18:00 17.4 C 36 % 1001.2 hPa 0.0 l/m 7.9 km/h (2 Bft) O 2.1 C 17.4 C
04.04.2002 19:00 15.7 C 40 % 1001.4 hPa 0.0 l/m 2.9 km/h (1 Bft) O 2.0 C 15.7 C
04.04.2002 20:00 13.7 C 42 % 1001.6 hPa 0.0 l/m 1.3 km/h (1 Bft) NO 1.1 C 13.7 C
04.04.2002 21:00 12.6 C 43 % 1002.5 hPa 0.0 l/m 1.7 km/h (1 Bft) N-NO 0.2 C 12.6 C
04.04.2002 22:00 11.4 C 42 % 1002.5 hPa 0.0 l/m 3.4 km/h (1 Bft) O-SO -1.2 C 11.3 C
04.04.2002 23:00 9.6 C 47 % 1002.5 hPa 0.0 l/m 3.0 km/h (1 Bft) O -1.1 C 9.5 C
05.04.2002 00:00 9.3 C 46 % 1002.5 hPa 0.0 l/m 0.7 km/h (0 Bft) N-NO -1.6 C 9.3 C
05.04.2002 01:00 6.7 C 57 % 1002.5 hPa 0.0 l/m 1.8 km/h (1 Bft) O-SO -1.2 C 6.4 C
05.04.2002 02:00 4.8 C 66 % 1002.5 hPa 0.0 l/m 1.8 km/h (1 Bft) O-SO -0.9 C 4.5 C
05.04.2002 03:00 3.7 C 68 % 1002.5 hPa 0.0 l/m 3.7 km/h (1 Bft) O-SO -1.8 C 2.9 C
05.04.2002 04:00 3.1 C 68 % 1002.5 hPa 0.0 l/m 4.6 km/h (1 Bft) O-SO -2.2 C 2.1 C
05.04.2002 05:00 2.1 C 73 % 1003.4 hPa 0.0 l/m 6.1 km/h (2 Bft) O-SO -2.3 C 0.3 C
05.04.2002 06:00 1.4 C 75 % 1003.5 hPa 0.0 l/m 2.6 km/h (1 Bft) O-SO -2.5 C 0.8 C
05.04.2002 07:00 1.0 C 80 % 1003.7 hPa 0.0 l/m 3.6 km/h (1 Bft) O-SO -2.0 C 0.1 C
05.04.2002 08:00 2.8 C 75 % 1004.5 hPa 0.0 l/m 0.7 km/h (0 Bft) O -1.2 C 2.7 C
05.04.2002 09:00 6.3 C 54 % 1004.5 hPa 0.0 l/m 1.3 km/h (1 Bft) NO -2.4 C 6.1 C
05.04.2002 10:00 8.7 C 47 % 1004.2 hPa 0.0 l/m 9.3 km/h (2 Bft) O-SO -1.9 C 7.4 C
05.04.2002 11:00 10.6 C 44 % 1003.9 hPa 0.0 l/m 5.8 km/h (2 Bft) O-SO -1.3 C 10.3 C
05.04.2002 12:00 12.6 C 41 % 1003.5 hPa 0.0 l/m 7.8 km/h (2 Bft) O-SO -0.3 C 12.6 C
05.04.2002 13:00 14.4 C 40 % 1003.5 hPa 0.0 l/m 13.6 km/h (3 Bft) O-SO 1.1 C 14.4 C
05.04.2002 14:00 15.3 C 40 % 1003.2 hPa 0.0 l/m 17.4 km/h (3 Bft) SO 1.7 C 15.3 C
05.04.2002 15:00 16.0 C 38 % 1002.7 hPa 0.0 l/m 19.6 km/h (3 Bft) SO 1.6 C 16.0 C
05.04.2002 16:00 15.4 C 35 % 1002.5 hPa 0.0 l/m 20.3 km/h (4 Bft) SO 0.2 C 15.4 C
05.04.2002 17:00 14.5 C 32 % 1002.5 hPa 0.0 l/m 23.9 km/h (4 Bft) O-SO -2.0 C 14.5 C
05.04.2002 18:00 13.3 C 34 % 1002.8 hPa 0.0 l/m 16.8 km/h (3 Bft) O-SO -2.3 C 13.3 C
05.04.2002 19:00 12.0 C 39 % 1003.5 hPa 0.0 l/m 4.6 km/h (1 Bft) O -1.6 C 12.0 C
05.04.2002 20:00 10.4 C 43 % 1004.1 hPa 0.0 l/m 2.1 km/h (1 Bft) O-NO -1.6 C 10.4 C
05.04.2002 21:00 8.8 C 47 % 1004.5 hPa 0.0 l/m 0.3 km/h (0 Bft) N -2.0 C 8.8 C
05.04.2002 22:00 7.3 C 50 % 1005.4 hPa 0.0 l/m 0.9 km/h (0 Bft) O-SO -2.3 C 7.3 C
05.04.2002 23:00 6.2 C 54 % 1005.6 hPa 0.0 l/m 0.1 km/h (0 Bft) N -2.4 C 6.2 C
06.04.2002 00:00 6.0 C 54 % 1006.2 hPa 0.0 l/m 0.4 km/h (0 Bft) N-NO -2.7 C 6.0 C
06.04.2002 01:00 5.5 C 52 % 1006.6 hPa 0.0 l/m 0.2 km/h (0 Bft) N -3.5 C 5.5 C
06.04.2002 02:00 4.8 C 56 % 1006.6 hPa 0.0 l/m 1.9 km/h (1 Bft) N-NO -3.4 C 4.4 C
06.04.2002 03:00 3.8 C 60 % 1007.5 hPa 0.0 l/m 4.1 km/h (1 Bft) NO -3.3 C 2.9 C
06.04.2002 04:00 2.8 C 61 % 1007.7 hPa 0.0 l/m 3.3 km/h (1 Bft) N -4.1 C 2.2 C
06.04.2002 05:00 1.8 C 63 % 1007.9 hPa 0.0 l/m 3.3 km/h (1 Bft) N-NO -4.5 C 1.0 C
06.04.2002 06:00 0.9 C 65 % 1008.6 hPa 0.0 l/m 2.2 km/h (1 Bft) NO -4.8 C 0.6 C
06.04.2002 07:00 0.7 C 65 % 1008.7 hPa 0.0 l/m 3.1 km/h (1 Bft) O -5.2 C -0.2 C
06.04.2002 08:00 1.7 C 59 % 1009.3 hPa 0.0 l/m 1.7 km/h (1 Bft) N-NO -5.5 C 1.3 C
06.04.2002 09:00 3.7 C 53 % 1009.7 hPa 0.0 l/m 7.0 km/h (2 Bft) NO -5.0 C 2.2 C
06.04.2002 10:00 5.5 C 48 % 1009.7 hPa 0.0 l/m 14.1 km/h (3 Bft) O -4.5 C 2.8 C
06.04.2002 11:00 7.3 C 44 % 1009.7 hPa 0.0 l/m 17.1 km/h (3 Bft) NO -4.2 C 4.4 C
06.04.2002 12:00 8.9 C 41 % 1009.7 hPa 0.0 l/m 12.6 km/h (3 Bft) O -3.5 C 7.1 C
06.04.2002 13:00 10.3 C 40 % 1009.7 hPa 0.0 l/m 12.9 km/h (3 Bft) O-SO -2.8 C 9.6 C
06.04.2002 14:00 11.0 C 34 % 1009.7 hPa 0.0 l/m 12.5 km/h (3 Bft) NO -4.3 C 11.0 C
06.04.2002 15:00 11.8 C 30 % 1009.7 hPa 0.0 l/m 13.3 km/h (3 Bft) O -5.2 C 11.8 C
06.04.2002 16:00 11.8 C 27 % 1009.7 hPa 0.0 l/m 11.7 km/h (2 Bft) O -6.4 C 11.8 C
06.04.2002 17:00 11.3 C 27 % 1010.1 hPa 0.0 l/m 11.6 km/h (2 Bft) O -7.0 C 11.3 C
06.04.2002 18:00 10.3 C 28 % 1010.8 hPa 0.0 l/m 6.0 km/h (2 Bft) NO -7.6 C 10.3 C
06.04.2002 19:00 9.1 C 34 % 1011.1 hPa 0.0 l/m 5.3 km/h (1 Bft) NO -6.0 C 8.5 C
06.04.2002 20:00 7.5 C 38 % 1012.1 hPa 0.0 l/m 5.7 km/h (1 Bft) O-NO -5.9 C 6.7 C
06.04.2002 21:00 6.4 C 41 % 1013.2 hPa 0.0 l/m 3.3 km/h (1 Bft) N-NO -5.8 C 5.9 C
06.04.2002 22:00 5.5 C 43 % 1013.9 hPa 0.0 l/m 3.6 km/h (1 Bft) NO -6.0 C 5.0 C
06.04.2002 23:00 4.7 C 45 % 1014.8 hPa 0.0 l/m 2.6 km/h (1 Bft) NO -6.1 C 4.4 C
07.04.2002 00:00 4.1 C 48 % 1014.9 hPa 0.0 l/m 1.8 km/h (1 Bft) NO -6.0 C 3.8 C
07.04.2002 01:00 3.4 C 52 % 1014.9 hPa 0.0 l/m 2.8 km/h (1 Bft) NO -5.6 C 2.9 C
07.04.2002 02:00 2.9 C 54 % 1014.9 hPa 0.0 l/m 5.5 km/h (1 Bft) N -5.3 C 1.7 C
07.04.2002 03:00 2.1 C 58 % 1015.1 hPa 0.0 l/m 4.3 km/h (1 Bft) NO -5.2 C 1.1 C
07.04.2002 04:00 1.1 C 62 % 1015.8 hPa 0.0 l/m 1.8 km/h (1 Bft) NO -5.3 C 0.8 C
07.04.2002 05:00 -0.5 C 71 % 1015.2 hPa 0.0 l/m 2.1 km/h (1 Bft) O-SO -5.2 C -1.1 C
07.04.2002 06:00 -1.0 C 73 % 1014.9 hPa 0.0 l/m 2.6 km/h (1 Bft) O-SO -5.3 C -1.7 C
07.04.2002 07:00 -0.7 C 72 % 1015.6 hPa 0.0 l/m 2.1 km/h (1 Bft) O-SO -5.2 C -1.3 C
07.04.2002 08:00 1.9 C 57 % 1015.4 hPa 0.0 l/m 4.7 km/h (1 Bft) O-SO -5.8 C 0.8 C
07.04.2002 09:00 4.0 C 50 % 1015.9 hPa 0.0 l/m 6.7 km/h (2 Bft) O-SO -5.5 C 2.4 C
07.04.2002 10:00 5.8 C 46 % 1015.9 hPa 0.0 l/m 18.1 km/h (3 Bft) O-SO -4.8 C 2.4 C
07.04.2002 11:00 7.8 C 42 % 1015.2 hPa 0.0 l/m 15.6 km/h (3 Bft) O-SO -4.2 C 5.2 C
07.04.2002 12:00 9.9 C 38 % 1014.9 hPa 0.0 l/m 17.0 km/h (3 Bft) O-SO -3.6 C 8.5 C
07.04.2002 13:00 11.4 C 35 % 1014.9 hPa 0.0 l/m 14.0 km/h (3 Bft) O -3.4 C 11.4 C
07.04.2002 14:00 12.1 C 33 % 1014.9 hPa 0.0 l/m 9.9 km/h (2 Bft) O -3.7 C 12.1 C
07.04.2002 15:00 12.4 C 31 % 1014.4 hPa 0.0 l/m 4.6 km/h (1 Bft) O -4.2 C 12.4 C
07.04.2002 16:00 12.6 C 32 % 1013.9 hPa 0.0 l/m 10.1 km/h (2 Bft) O-SO -3.7 C 12.6 C
07.04.2002 17:00 13.4 C 30 % 1013.9 hPa 0.0 l/m 9.3 km/h (2 Bft) O-SO -3.9 C 13.4 C
07.04.2002 18:00 12.0 C 32 % 1013.9 hPa 0.0 l/m 6.1 km/h (2 Bft) NO -4.1 C 12.0 C
07.04.2002 19:00 10.2 C 36 % 1013.9 hPa 0.0 l/m 1.1 km/h (0 Bft) NO -4.3 C 10.2 C
07.04.2002 20:00 8.1 C 42 % 1013.9 hPa 0.0 l/m 0.4 km/h (0 Bft) O -4.2 C 8.1 C
07.04.2002 21:00 7.6 C 43 % 1014.9 hPa 0.0 l/m 0.1 km/h (0 Bft) N -4.4 C 7.6 C
07.04.2002 22:00 7.3 C 43 % 1014.9 hPa 0.0 l/m 0.4 km/h (0 Bft) NO -4.5 C 7.3 C
07.04.2002 23:00 7.2 C 44 % 1015.5 hPa 0.0 l/m 2.1 km/h (1 Bft) NO -4.3 C 6.9 C
Min-Datum _ 01.04.02 01.04.02 04.04.02 - 01.04.02 - 06.04.02 07.04.02
_ Min-Zeit 06:32 14:38 17:17 - 00:02 - 18:34 06:11
Minimum _ -1.3 C 27 % 1000.4 hPa - 0.0 km/h (0 Bft) - -8.0 C -4.8 C
Max-Datum _ 03.04.02 04.04.02 01.04.02 01.04.02 05.04.02 - 04.04.02 03.04.02
_ Max-Zeit 15:25 06:29 00:00 00:02 17:30 - 12:29 15:25
Maximum _ 20.0 C 100 % 1018.0 hPa 0.0 l/m 34.6 km/h
O-SO (5 Bft)
- 6.2 C 20.0 C
Durchschnitt _ 8.8 C 56 % 1009.6 hPa #0.0 l/m 5.0 km/h (1 Bft) O-SO -0.5 C 8.6 C

Durchschnitt Minimum Temp.7.8 C
Durchschnitt Maximum Temp.9.9 C
© Kaiko 2002